EDT,Max TemperatureF,Mean TemperatureF,Min TemperatureF,Max Dew PointF,MeanDew PointF,Min DewpointF,Max Humidity, Mean Humidity, Min Humidity, Max Sea Level PressureIn, Mean Sea Level PressureIn, Min Sea Level PressureIn, Max VisibilityMiles, Mean VisibilityMiles, Min VisibilityMiles, Max Wind SpeedMPH, Mean Wind SpeedMPH, Max Gust SpeedMPH,PrecipitationIn, CloudCover, Events, WindDirDegrees
2012-10-1,32,26,21,28,26,16,100,87,74,29.82,29.79,29.73,15,9,4,8,4,,0.00,7,Snow,172
2012-10-2,34,31,28,32,30,26,100,93,85,29.74,29.47,29.26,15,5,1,24,8,32,0.00,7,Snow,63
2012-10-3,33,30,24,30,25,21,93,82,63,29.74,29.53,29.29,15,10,9,15,9,,0.00,7,Snow,128
2012-10-4,26,24,21,21,17,12,86,74,56,29.89,29.85,29.77,15,10,9,22,17,28,0.00,7,Snow,273
2012-10-5,25,24,23,19,16,13,80,70,49,29.91,29.89,29.85,20,9,2,22,15,25,0.00,6,Snow,288
2012-10-6,24,22,19,19,17,12,93,77,59,30.01,29.96,29.89,15,6,1,10,6,,0.00,8,Snow,301
2012-10-7,21,17,12,18,15,7,93,83,67,29.98,29.93,29.87,9,5,1,14,9,,0.00,8,Snow,165
2012-10-8,23,16,8,16,10,3,80,72,52,29.90,29.84,29.76,15,9,5,26,15,30,0.00,5,Snow,211
2012-10-9,23,21,19,18,15,14,86,80,66,29.90,29.84,29.74,9,5,1,21,14,24,0.00,8,Snow,205
2012-10-10,24,17,10,21,15,7,93,79,59,29.91,29.78,29.70,20,6,1,18,13,18,0.00,7,Snow,204
2012-10-11,28,18,8,23,14,3,80,71,49,29.93,29.88,29.72,20,10,7,21,8,30,0.00,6,Snow,105
2012-10-12,32,30,28,27,25,21,93,80,63,29.74,29.62,29.52,9,8,1,31,18,39,0.00,7,Snow,75
2012-10-13,36,30,24,27,23,19,86,73,48,29.62,29.59,29.53,20,10,9,20,9,,0.00,4,,116
2012-10-14,32,28,24,25,23,21,93,82,61,29.79,29.67,29.59,9,9,9,10,6,,0.00,5,,194
2012-10-15,27,21,15,25,19,12,93,82,68,30.04,29.95,29.81,15,10,9,10,6,,0.00,6,,150
2012-10-16,33,25,17,21,19,14,86,64,40,30.02,29.97,29.90,15,10,9,30,10,36,0.00,4,Snow,103
2012-10-17,37,32,26,29,26,19,100,84,46,29.93,29.80,29.67,15,5,0,26,12,36,0.00,5,Rain-Snow,106
2012-10-18,30,24,17,27,21,12,93,81,55,29.82,29.68,29.60,20,6,0,22,9,24,0.00,5,Snow,131
2012-10-19,26,20,15,24,21,10,93,87,70,29.96,29.90,29.83,9,5,1,14,9,,0.00,8,Snow,213
2012-10-20,23,21,19,19,17,15,86,83,73,30.31,30.12,29.96,10,8,1,10,8,,0.00,8,Snow,227
2012-10-21,19,16,14,16,13,10,86,82,69,30.55,30.47,30.31,9,8,1,13,9,,0.00,8,Snow,164
2012-10-22,15,14,12,11,10,7,86,80,70,30.63,30.58,30.52,15,9,2,13,11,,0.00,8,Snow,164
2012-10-23,14,12,10,11,10,6,92,88,72,30.70,30.65,30.60,15,8,1,15,11,,0.00,8,Snow,174
2012-10-24,17,14,12,16,12,9,93,92,84,30.70,30.65,30.48,4,1,0,8,5,,0.00,8,Fog,163
2012-10-25,18,16,14,16,14,11,93,91,84,30.46,30.23,30.08,15,6,0,5,3,,0.00,4,Fog-Snow,183
2012-10-26,21,14,8,19,14,5,100,92,83,30.10,30.07,30.04,10,3,0,5,3,,0.00,6,Fog,169
2012-10-27,32,18,12,25,16,9,93,79,42,30.76,29.75,29.36,15,6,1,37,15,44,0.00,5,Snow,86
2012-10-28,24,20,15,18,15,10,86,76,49,29.93,29.69,29.33,9,8,2,18,10,,0.00,7,Snow,220
2012-10-29,17,13,8,12,7,3,86,75,60,30.43,30.15,29.93,15,9,1,20,16,22,0.00,8,Snow,252
2012-10-30,10,5,0,3,1,-4,92,77,60,30.58,30.54,30.45,15,10,4,10,8,,0.00,7,Snow,160
2012-10-31,19,10,1,14,8,-2,93,80,53,30.56,30.37,30.16,20,7,1,12,9,,0.00,8,Snow,95